Portada
METAR-TAF:

METAR-TAF

Aeropuertos :

Brooks Field

Marshall, Míchigan, Estados Unidos

latitud: 42-15-04N, longitud: 084-57-20W, altitud: 287 m

Observación

El informe se hizo hace 27 minutos, a las 20:15 UTC
Viento calma
Temperatura 31°C
Humedad 52%
Presión 1024 hPa
Visibilidad: 16.1 km
Cielo despejado

METAR: KRMY 192015Z AUTO 00000KT 10SM CLR 31/20 A3024 RMK AO2 T03120201

Hora: 16:42 (20:42 UTC)


TAF: falta

Observaciones y pronósticos meteorológicos de más de 4000 aeropuertos (mensajes METAR y TAF).

Los puntos amarillos y rojos representan las estaciones disponibles.

Ponga el ratón en el punto deseado para ver el nombre de la estación.

Haga clic para ver las observaciones y los pronósticos meteorológicos.

Para cambiar el mapa : haga clic en los botones verdes con una cruz de color negro para hacer un zoom, en el botón verde con un guión para alejar o en las flechas verdes para mapas adyacentes.


METAR-TAF: